Time,TemperatureF,DewpointF,PressureIn,WindDirection,WindDirectionDegrees,WindSpeedMPH,WindSpeedGustMPH,Humidity,HourlyPrecipIn,Conditions,Clouds,dailyrainin,SoftwareType,DateUTC
2013-01-06 00:03:00,20.6,14.2,30.30,ESE,106,0.0,0.0,76,0.00,,---,0.00,VWS V13.01,2013-01-06 07:03:00,
2013-01-06 00:08:00,21.0,14.3,30.30,ESE,106,0.0,0.0,75,0.00,,---,0.00,VWS V13.01,2013-01-06 07:08:00,
2013-01-06 00:13:00,21.1,14.1,30.30,ESE,106,0.0,0.0,74,0.00,,---,0.00,VWS V13.01,2013-01-06 07:13:00,
2013-01-06 00:19:00,21.0,13.7,30.29,ESE,106,0.0,0.0,73,0.00,,---,0.00,VWS V13.01,2013-01-06 07:19:00,
2013-01-06 00:24:00,21.0,14.3,30.29,ESE,106,0.0,0.0,75,0.00,,---,0.00,VWS V13.01,2013-01-06 07:24:00,
2013-01-06 00:29:00,21.1,14.4,30.29,ESE,106,0.0,0.0,75,0.00,,---,0.00,VWS V13.01,2013-01-06 07:29:00,
2013-01-06 00:34:00,21.4,14.1,30.28,ESE,106,0.0,1.0,73,0.00,,---,0.00,VWS V13.01,2013-01-06 07:34:00,
2013-01-06 00:39:00,21.6,14.6,30.28,ESE,106,0.0,0.0,74,0.00,,---,0.00,VWS V13.01,2013-01-06 07:39:00,
2013-01-06 00:44:00,21.9,14.9,30.28,ESE,106,0.0,0.0,74,0.00,,---,0.00,VWS V13.01,2013-01-06 07:44:00,
2013-01-06 00:49:00,22.1,14.8,30.28,ESE,106,0.0,0.0,73,0.00,,---,0.00,VWS V13.01,2013-01-06 07:49:00,
2013-01-06 00:54:00,22.1,14.5,30.28,ESE,106,0.0,0.0,72,0.00,,---,0.00,VWS V13.01,2013-01-06 07:54:00,
2013-01-06 00:59:00,21.9,14.6,30.27,ESE,106,0.0,0.0,73,0.00,,---,0.00,VWS V13.01,2013-01-06 07:59:00,
2013-01-06 01:04:00,21.8,14.5,30.27,ESE,106,0.0,0.0,73,0.00,,---,0.00,VWS V13.01,2013-01-06 08:04:00,
2013-01-06 01:09:00,21.6,14.3,30.27,ESE,106,0.0,0.0,73,0.00,,---,0.00,VWS V13.01,2013-01-06 08:09:00,
2013-01-06 01:14:00,21.6,14.3,30.26,ESE,106,0.0,0.0,73,0.00,,---,0.00,VWS V13.01,2013-01-06 08:14:00,
2013-01-06 01:19:00,21.4,14.4,30.26,ESE,106,0.0,0.0,74,0.00,,---,0.00,VWS V13.01,2013-01-06 08:19:00,
2013-01-06 01:25:00,21.1,13.8,30.26,ESE,106,0.0,0.0,73,0.00,,---,0.00,VWS V13.01,2013-01-06 08:25:00,
2013-01-06 01:30:00,21.0,13.7,30.26,ESE,106,0.0,0.0,73,0.00,,---,0.00,VWS V13.01,2013-01-06 08:30:00,
2013-01-06 01:35:00,20.6,13.3,30.26,ESE,106,0.0,0.0,73,0.00,,---,0.00,VWS V13.01,2013-01-06 08:35:00,
2013-01-06 01:40:00,20.5,13.5,30.26,ESE,106,0.0,0.0,74,0.00,,---,0.00,VWS V13.01,2013-01-06 08:40:00,
2013-01-06 01:45:00,20.3,13.7,30.26,ESE,106,0.0,0.0,75,0.00,,---,0.00,VWS V13.01,2013-01-06 08:45:00,
2013-01-06 01:50:00,20.2,13.6,30.26,ESE,106,0.0,0.0,75,0.00,,---,0.00,VWS V13.01,2013-01-06 08:50:00,
2013-01-06 01:55:00,20.0,13.7,30.26,ESE,106,0.0,0.0,76,0.00,,---,0.00,VWS V13.01,2013-01-06 08:55:00,
2013-01-06 02:00:00,20.0,13.4,30.26,ESE,106,0.0,0.0,75,0.00,,---,0.00,VWS V13.01,2013-01-06 09:00:00,
2013-01-06 02:05:00,19.9,13.3,30.26,ESE,106,0.0,0.0,75,0.00,,---,0.00,VWS V13.01,2013-01-06 09:05:00,
2013-01-06 02:10:00,19.9,13.3,30.26,ESE,106,0.0,0.0,75,0.00,,---,0.00,VWS V13.01,2013-01-06 09:10:00,
2013-01-06 02:15:00,20.0,13.7,30.25,ESE,106,0.0,0.0,76,0.00,,---,0.00,VWS V13.01,2013-01-06 09:15:00,
2013-01-06 02:20:00,20.2,13.6,30.25,ESE,106,0.0,0.0,75,0.00,,---,0.00,VWS V13.01,2013-01-06 09:20:00,
2013-01-06 02:25:00,20.2,13.6,30.25,ESE,106,0.0,0.0,75,0.00,,---,0.00,VWS V13.01,2013-01-06 09:25:00,
2013-01-06 02:30:00,20.2,13.6,30.24,ESE,106,0.0,0.0,75,0.00,,---,0.00,VWS V13.01,2013-01-06 09:30:00,
2013-01-06 02:35:00,20.2,13.6,30.24,ESE,106,0.0,0.0,75,0.00,,---,0.00,VWS V13.01,2013-01-06 09:35:00,
2013-01-06 02:40:00,20.2,13.6,30.24,ESE,106,0.0,0.0,75,0.00,,---,0.00,VWS V13.01,2013-01-06 09:40:00,
2013-01-06 02:45:00,20.2,13.9,30.24,ESE,106,0.0,0.0,76,0.00,,---,0.00,VWS V13.01,2013-01-06 09:45:00,
2013-01-06 02:50:00,20.2,13.9,30.24,ESE,106,0.0,0.0,76,0.00,,---,0.00,VWS V13.01,2013-01-06 09:50:00,
2013-01-06 02:55:00,20.2,13.9,30.24,ESE,106,0.0,0.0,76,0.00,,---,0.00,VWS V13.01,2013-01-06 09:55:00,
2013-01-06 03:00:00,20.2,13.9,30.24,ESE,106,0.0,0.0,76,0.00,,---,0.00,VWS V13.01,2013-01-06 10:00:00,
2013-01-06 03:06:00,20.3,14.0,30.24,ESE,106,0.0,0.0,76,0.00,,---,0.00,VWS V13.01,2013-01-06 10:06:00,
2013-01-06 03:11:00,20.5,14.1,30.24,ESE,106,0.0,0.0,76,0.00,,---,0.00,VWS V13.01,2013-01-06 10:11:00,
2013-01-06 03:16:00,20.8,14.7,30.23,ESE,106,0.0,0.0,77,0.00,,---,0.00,VWS V13.01,2013-01-06 10:16:00,
2013-01-06 03:21:00,21.1,14.7,30.23,ESE,106,0.0,0.0,76,0.00,,---,0.00,VWS V13.01,2013-01-06 10:21:00,
2013-01-06 03:26:00,21.1,14.4,30.23,ESE,106,0.0,0.0,75,0.00,,---,0.00,VWS V13.01,2013-01-06 10:26:00,
2013-01-06 03:31:00,21.3,14.6,30.22,ESE,106,0.0,0.0,75,0.00,,---,0.00,VWS V13.01,2013-01-06 10:31:00,
2013-01-06 03:36:00,21.3,14.3,30.22,ESE,106,0.0,0.0,74,0.00,,---,0.00,VWS V13.01,2013-01-06 10:36:00,
2013-01-06 03:41:00,21.1,14.1,30.22,ESE,106,0.0,0.0,74,0.00,,---,0.00,VWS V13.01,2013-01-06 10:41:00,
2013-01-06 03:46:00,21.1,14.1,30.22,ESE,106,0.0,0.0,74,0.00,,---,0.00,VWS V13.01,2013-01-06 10:46:00,
2013-01-06 03:51:00,21.1,14.1,30.22,ESE,106,0.0,0.0,74,0.00,,---,0.00,VWS V13.01,2013-01-06 10:51:00,
2013-01-06 03:56:00,21.1,14.1,30.22,ESE,106,0.0,0.0,74,0.00,,---,0.00,VWS V13.01,2013-01-06 10:56:00,
2013-01-06 04:01:00,21.0,14.3,30.21,ESE,106,0.0,0.0,75,0.00,,---,0.00,VWS V13.01,2013-01-06 11:01:00,
2013-01-06 04:06:00,21.0,13.7,30.21,ESE,106,0.0,0.0,73,0.00,,---,0.00,VWS V13.01,2013-01-06 11:06:00,
2013-01-06 04:11:00,21.0,14.0,30.21,ESE,106,0.0,0.0,74,0.00,,---,0.00,VWS V13.01,2013-01-06 11:11:00,
2013-01-06 04:16:00,21.1,14.1,30.22,ESE,106,0.0,0.0,74,0.00,,---,0.00,VWS V13.01,2013-01-06 11:16:00,
2013-01-06 04:22:00,21.1,14.4,30.22,ESE,106,0.0,0.0,75,0.00,,---,0.00,VWS V13.01,2013-01-06 11:22:00,
2013-01-06 04:27:00,21.1,14.4,30.22,ESE,106,0.0,0.0,75,0.00,,---,0.00,VWS V13.01,2013-01-06 11:27:00,
2013-01-06 04:32:00,21.3,14.6,30.21,ESE,106,0.0,0.0,75,0.00,,---,0.00,VWS V13.01,2013-01-06 11:32:00,
2013-01-06 04:37:00,21.4,15.0,30.21,ESE,106,0.0,0.0,76,0.00,,---,0.00,VWS V13.01,2013-01-06 11:37:00,
2013-01-06 04:42:00,21.4,14.7,30.21,ESE,106,0.0,0.0,75,0.00,,---,0.00,VWS V13.01,2013-01-06 11:42:00,
2013-01-06 04:47:00,21.4,15.0,30.21,ESE,106,0.0,0.0,76,0.00,,---,0.00,VWS V13.01,2013-01-06 11:47:00,
2013-01-06 04:52:00,21.6,14.9,30.21,ESE,106,0.0,0.0,75,0.00,,---,0.00,VWS V13.01,2013-01-06 11:52:00,
2013-01-06 04:57:00,21.6,14.3,30.21,ESE,106,0.0,1.0,73,0.00,,---,0.00,VWS V13.01,2013-01-06 11:57:00,
2013-01-06 05:02:00,21.4,13.8,30.20,ESE,106,0.0,1.0,72,0.00,,---,0.00,VWS V13.01,2013-01-06 12:02:00,
2013-01-06 05:07:00,21.3,13.7,30.20,ESE,106,1.0,1.0,72,0.00,,---,0.00,VWS V13.01,2013-01-06 12:07:00,
2013-01-06 05:12:00,21.0,13.1,30.20,NW,317,0.0,0.0,71,0.00,,---,0.00,VWS V13.01,2013-01-06 12:12:00,
2013-01-06 05:17:00,20.6,13.0,30.22,NW,317,0.0,0.0,72,0.00,,---,0.00,VWS V13.01,2013-01-06 12:17:00,
2013-01-06 05:22:00,20.3,12.7,30.22,NW,317,0.0,0.0,72,0.00,,---,0.00,VWS V13.01,2013-01-06 12:22:00,
2013-01-06 05:27:00,19.9,12.3,30.22,NW,317,0.0,0.0,72,0.00,,---,0.00,VWS V13.01,2013-01-06 12:27:00,
2013-01-06 05:32:00,19.7,12.5,30.21,NW,317,0.0,0.0,73,0.00,,---,0.00,VWS V13.01,2013-01-06 12:32:00,
2013-01-06 05:37:00,19.7,13.1,30.21,NW,317,0.0,0.0,75,0.00,,---,0.00,VWS V13.01,2013-01-06 12:37:00,
2013-01-06 05:42:00,19.7,13.1,30.21,NW,317,0.0,0.0,75,0.00,,---,0.00,VWS V13.01,2013-01-06 12:42:00,
2013-01-06 05:47:00,19.7,13.4,30.21,NW,317,0.0,0.0,76,0.00,,---,0.00,VWS V13.01,2013-01-06 12:47:00,
2013-01-06 05:53:00,19.9,13.6,30.21,NW,317,0.0,0.0,76,0.00,,---,0.00,VWS V13.01,2013-01-06 12:53:00,
2013-01-06 05:58:00,20.0,14.0,30.21,NW,317,0.0,0.0,77,0.00,,---,0.00,VWS V13.01,2013-01-06 12:58:00,
2013-01-06 06:03:00,20.2,14.2,30.21,NW,317,0.0,0.0,77,0.00,,---,0.00,VWS V13.01,2013-01-06 13:03:00,
2013-01-06 06:08:00,20.3,14.0,30.21,NW,316,0.0,0.0,76,0.00,,---,0.00,VWS V13.01,2013-01-06 13:08:00,
2013-01-06 06:13:00,20.5,14.1,30.21,NW,317,0.0,0.0,76,0.00,,---,0.00,VWS V13.01,2013-01-06 13:13:00,
2013-01-06 06:18:00,20.6,14.6,30.21,NW,316,0.0,0.0,77,0.00,,---,0.00,VWS V13.01,2013-01-06 13:18:00,
2013-01-06 06:23:00,21.0,14.9,30.21,NW,317,0.0,0.0,77,0.00,,---,0.00,VWS V13.01,2013-01-06 13:23:00,
2013-01-06 06:28:00,21.9,14.9,30.21,NW,317,0.0,0.0,74,0.00,,---,0.00,VWS V13.01,2013-01-06 13:28:00,
2013-01-06 06:33:00,22.7,15.1,30.21,NW,317,0.0,0.0,72,0.00,,---,0.00,VWS V13.01,2013-01-06 13:33:00,
2013-01-06 06:38:00,23.3,15.3,30.21,NW,317,0.0,0.0,71,0.00,,---,0.00,VWS V13.01,2013-01-06 13:38:00,
2013-01-06 06:43:00,23.5,15.5,30.21,NW,317,0.0,0.0,71,0.00,,---,0.00,VWS V13.01,2013-01-06 13:43:00,
2013-01-06 06:48:00,23.8,15.5,30.20,NW,317,0.0,0.0,70,0.00,,---,0.00,VWS V13.01,2013-01-06 13:48:00,
2013-01-06 06:53:00,23.8,15.5,30.20,NW,317,0.0,0.0,70,0.00,,---,0.00,VWS V13.01,2013-01-06 13:53:00,
2013-01-06 06:58:00,23.6,15.3,30.20,NW,317,0.0,0.0,70,0.00,,---,0.00,VWS V13.01,2013-01-06 13:58:00,
2013-01-06 07:03:00,23.3,15.6,30.20,NW,317,0.0,0.0,72,0.00,,---,0.00,VWS V13.01,2013-01-06 14:03:00,
2013-01-06 07:08:00,23.2,15.2,30.20,NW,317,0.0,0.0,71,0.00,,---,0.00,VWS V13.01,2013-01-06 14:08:00,
2013-01-06 07:13:00,23.2,14.6,30.20,NNW,338,0.0,0.0,69,0.00,,---,0.00,VWS V13.01,2013-01-06 14:13:00,
2013-01-06 07:19:00,23.3,14.3,30.20,NNW,338,0.0,0.0,68,0.00,,---,0.00,VWS V13.01,2013-01-06 14:19:00,
2013-01-06 07:24:00,23.5,14.8,30.20,NNW,338,0.0,0.0,69,0.00,,---,0.00,VWS V13.01,2013-01-06 14:24:00,
2013-01-06 07:29:00,23.5,14.5,30.20,NNW,338,0.0,0.0,68,0.00,,---,0.00,VWS V13.01,2013-01-06 14:29:00,
2013-01-06 07:34:00,23.5,14.2,30.18,NNW,338,0.0,0.0,67,0.00,,---,0.00,VWS V13.01,2013-01-06 14:34:00,
2013-01-06 07:39:00,23.3,14.0,30.18,NNW,338,0.0,0.0,67,0.00,,---,0.00,VWS V13.01,2013-01-06 14:39:00,
2013-01-06 07:44:00,23.2,13.9,30.18,NNW,338,0.0,0.0,67,0.00,,---,0.00,VWS V13.01,2013-01-06 14:44:00,
2013-01-06 07:49:00,23.3,13.3,30.19,West,267,0.0,3.0,65,0.00,,---,0.00,VWS V13.01,2013-01-06 14:49:00,
2013-01-06 07:54:00,23.3,13.6,30.19,West,267,0.0,0.0,66,0.00,,---,0.00,VWS V13.01,2013-01-06 14:54:00,
2013-01-06 07:59:00,23.2,13.5,30.20,West,267,0.0,0.0,66,0.00,,---,0.00,VWS V13.01,2013-01-06 14:59:00,
2013-01-06 08:04:00,22.9,13.3,30.20,West,267,0.0,1.0,66,0.00,,---,0.00,VWS V13.01,2013-01-06 15:04:00,
2013-01-06 08:09:00,22.7,13.7,30.20,West,267,0.0,0.0,68,0.00,,---,0.00,VWS V13.01,2013-01-06 15:09:00,
2013-01-06 08:14:00,22.5,13.9,30.20,West,267,0.0,0.0,69,0.00,,---,0.00,VWS V13.01,2013-01-06 15:14:00,
2013-01-06 08:20:00,22.5,13.9,30.20,West,267,0.0,0.0,69,0.00,,---,0.00,VWS V13.01,2013-01-06 15:20:00,
2013-01-06 08:25:00,22.2,13.6,30.20,West,267,0.0,0.0,69,0.00,,---,0.00,VWS V13.01,2013-01-06 15:25:00,
2013-01-06 08:30:00,21.9,13.3,30.21,West,267,0.0,0.0,69,0.00,,---,0.00,VWS V13.01,2013-01-06 15:30:00,
2013-01-06 08:35:00,21.6,13.3,30.21,West,267,0.0,0.0,70,0.00,,---,0.00,VWS V13.01,2013-01-06 15:35:00,
2013-01-06 08:40:00,21.4,13.5,30.21,West,267,0.0,0.0,71,0.00,,---,0.00,VWS V13.01,2013-01-06 15:40:00,
2013-01-06 08:45:00,21.3,13.7,30.21,West,267,0.0,0.0,72,0.00,,---,0.00,VWS V13.01,2013-01-06 15:45:00,
2013-01-06 08:50:00,21.6,14.6,30.21,West,267,0.0,0.0,74,0.00,,---,0.00,VWS V13.01,2013-01-06 15:50:00,
2013-01-06 08:55:00,21.9,14.6,30.21,West,267,0.0,0.0,73,0.00,,---,0.00,VWS V13.01,2013-01-06 15:55:00,
2013-01-06 09:00:00,22.5,14.9,30.21,West,267,0.0,0.0,72,0.00,,---,0.00,VWS V13.01,2013-01-06 16:00:00,
2013-01-06 09:05:00,23.2,15.5,30.21,West,267,0.0,0.0,72,0.00,,---,0.00,VWS V13.01,2013-01-06 16:05:00,
2013-01-06 09:10:00,23.9,16.2,30.21,West,261,0.0,0.0,72,0.00,,---,0.00,VWS V13.01,2013-01-06 16:10:00,
2013-01-06 09:15:00,24.5,16.5,30.19,West,261,0.0,0.0,71,0.00,,---,0.00,VWS V13.01,2013-01-06 16:15:00,
2013-01-06 09:20:00,25.1,16.0,30.19,West,261,0.0,0.0,68,0.00,,---,0.00,VWS V13.01,2013-01-06 16:20:00,
2013-01-06 09:25:00,25.7,16.6,30.19,West,261,0.0,0.0,68,0.00,,---,0.00,VWS V13.01,2013-01-06 16:25:00,
2013-01-06 09:30:00,26.1,16.7,30.18,SW,223,0.0,1.0,67,0.00,,---,0.00,VWS V13.01,2013-01-06 16:30:00,
2013-01-06 09:35:00,26.6,17.5,30.18,SW,223,0.0,0.0,68,0.00,,---,0.00,VWS V13.01,2013-01-06 16:35:00,
2013-01-06 09:41:00,26.9,17.4,30.18,SW,223,0.0,0.0,67,0.00,,---,0.00,VWS V13.01,2013-01-06 16:41:00,
2013-01-06 09:46:00,27.2,18.0,30.18,SW,223,0.0,0.0,68,0.00,,---,0.00,VWS V13.01,2013-01-06 16:46:00,
2013-01-06 09:51:00,27.5,18.0,30.18,SW,223,0.0,0.0,67,0.00,,---,0.00,VWS V13.01,2013-01-06 16:51:00,
2013-01-06 09:56:00,27.9,17.7,30.18,SW,223,0.0,0.0,65,0.00,,---,0.00,VWS V13.01,2013-01-06 16:56:00,
2013-01-06 10:01:00,28.4,18.5,30.16,SW,223,0.0,0.0,66,0.00,,---,0.00,VWS V13.01,2013-01-06 17:01:00,
2013-01-06 10:06:00,28.7,19.1,30.16,SW,223,0.0,0.0,67,0.00,,---,0.00,VWS V13.01,2013-01-06 17:06:00,
2013-01-06 10:11:00,29.1,19.2,30.16,SW,223,0.0,0.0,66,0.00,,---,0.00,VWS V13.01,2013-01-06 17:11:00,
2013-01-06 10:16:00,29.5,19.2,30.15,SW,223,0.0,0.0,65,0.00,,---,0.00,VWS V13.01,2013-01-06 17:16:00,
2013-01-06 10:22:00,30.0,18.6,30.15,West,259,2.0,4.0,62,0.00,,---,0.00,VWS V13.01,2013-01-06 17:22:00,
2013-01-06 10:27:00,29.0,15.7,30.15,West,269,0.0,3.0,57,0.00,,---,0.00,VWS V13.01,2013-01-06 17:27:00,
2013-01-06 10:32:00,28.1,16.4,30.17,West,269,0.0,0.0,61,0.00,,---,0.00,VWS V13.01,2013-01-06 17:32:00,
2013-01-06 10:37:00,27.8,17.6,30.17,SE,128,0.0,4.0,65,0.00,,---,0.00,VWS V13.01,2013-01-06 17:37:00,
2013-01-06 10:42:00,28.1,17.9,30.17,NNE,30,1.0,1.0,65,0.00,,---,0.00,VWS V13.01,2013-01-06 17:42:00,
2013-01-06 10:47:00,28.5,17.9,30.16,NNE,32,0.0,0.0,64,0.00,,---,0.00,VWS V13.01,2013-01-06 17:47:00,
2013-01-06 10:53:00,29.1,18.1,30.16,NNE,32,0.0,0.0,63,0.00,,---,0.00,VWS V13.01,2013-01-06 17:53:00,
2013-01-06 10:58:00,29.5,18.5,30.16,NNE,31,0.0,0.0,63,0.00,,---,0.00,VWS V13.01,2013-01-06 17:58:00,
2013-01-06 11:03:00,29.7,17.5,30.14,NNE,23,0.0,1.0,60,0.00,,---,0.00,VWS V13.01,2013-01-06 18:03:00,
2013-01-06 11:08:00,29.4,17.6,30.14,NNE,23,0.0,0.0,61,0.00,,---,0.00,VWS V13.01,2013-01-06 18:08:00,
2013-01-06 11:13:00,29.3,18.3,30.14,NNE,23,0.0,0.0,63,0.00,,---,0.00,VWS V13.01,2013-01-06 18:13:00,
2013-01-06 11:18:00,29.4,18.4,30.12,NNE,23,0.0,0.0,63,0.00,,---,0.00,VWS V13.01,2013-01-06 18:18:00,
2013-01-06 11:23:00,29.5,19.2,30.12,NNE,23,0.0,0.0,65,0.00,,---,0.00,VWS V13.01,2013-01-06 18:23:00,
2013-01-06 11:28:00,30.0,19.3,30.12,NNE,17,0.0,1.0,64,0.00,,---,0.00,VWS V13.01,2013-01-06 18:28:00,
2013-01-06 11:34:00,28.8,16.3,30.11,West,259,0.0,4.0,59,0.00,,---,0.00,VWS V13.01,2013-01-06 18:34:00,
2013-01-06 11:39:00,27.8,16.1,30.11,West,259,0.0,0.0,61,0.00,,---,0.00,VWS V13.01,2013-01-06 18:39:00,
2013-01-06 11:44:00,27.3,17.1,30.11,West,259,0.0,0.0,65,0.00,,---,0.00,VWS V13.01,2013-01-06 18:44:00,
2013-01-06 11:49:00,27.3,17.1,30.11,West,259,0.0,0.0,65,0.00,,---,0.00,VWS V13.01,2013-01-06 18:49:00,
2013-01-06 11:54:00,27.6,16.3,30.11,West,262,0.0,2.0,62,0.00,,---,0.00,VWS V13.01,2013-01-06 18:54:00,
2013-01-06 11:59:00,27.6,16.7,30.11,West,262,0.0,2.0,63,0.00,,---,0.00,VWS V13.01,2013-01-06 18:59:00,
2013-01-06 12:04:00,27.5,15.8,30.11,West,262,0.0,0.0,61,0.00,,---,0.00,VWS V13.01,2013-01-06 19:04:00,
2013-01-06 12:10:00,27.3,16.8,30.11,West,262,0.0,0.0,64,0.00,,---,0.00,VWS V13.01,2013-01-06 19:10:00,
2013-01-06 12:15:00,27.2,15.9,30.11,West,262,0.0,0.0,62,0.00,,---,0.00,VWS V13.01,2013-01-06 19:15:00,
2013-01-06 12:20:00,27.2,15.9,30.11,West,262,0.0,0.0,62,0.00,,---,0.00,VWS V13.01,2013-01-06 19:20:00,
2013-01-06 12:25:00,27.0,16.1,30.11,West,262,0.0,0.0,63,0.00,,---,0.00,VWS V13.01,2013-01-06 19:25:00,
2013-01-06 12:30:00,27.2,17.4,30.10,West,262,0.0,0.0,66,0.00,,---,0.00,VWS V13.01,2013-01-06 19:30:00,
2013-01-06 12:35:00,27.5,16.6,30.10,West,262,0.0,0.0,63,0.00,,---,0.00,VWS V13.01,2013-01-06 19:35:00,
2013-01-06 12:40:00,27.8,17.2,30.10,West,262,0.0,0.0,64,0.00,,---,0.00,VWS V13.01,2013-01-06 19:40:00,
2013-01-06 12:45:00,28.4,17.4,30.08,NW,311,0.0,2.0,63,0.00,,---,0.00,VWS V13.01,2013-01-06 19:45:00,
2013-01-06 12:51:00,28.7,16.2,30.08,WNW,300,0.0,0.0,59,0.00,,---,0.00,VWS V13.01,2013-01-06 19:51:00,
2013-01-06 12:57:00,28.8,17.1,30.08,WNW,300,0.0,0.0,61,0.00,,---,0.00,VWS V13.01,2013-01-06 19:57:00,
2013-01-06 13:02:00,29.4,19.1,30.08,WNW,300,0.0,0.0,65,0.00,,---,0.00,VWS V13.01,2013-01-06 20:02:00,
2013-01-06 13:08:00,30.0,18.2,30.08,WNW,300,0.0,0.0,61,0.00,,---,0.00,VWS V13.01,2013-01-06 20:08:00,
2013-01-06 13:12:00,30.6,19.9,30.08,WNW,300,0.0,0.0,64,0.00,,---,0.00,VWS V13.01,2013-01-06 20:12:00,
2013-01-06 13:13:00,30.7,20.0,30.08,WNW,300,0.0,0.0,64,0.00,,---,0.00,VWS V13.01,2013-01-06 20:13:00,
2013-01-06 13:18:00,31.5,15.5,30.08,WNW,300,0.0,1.0,51,0.00,,---,0.00,VWS V13.01,2013-01-06 20:18:00,
2013-01-06 13:23:00,32.2,17.4,30.08,WNW,300,0.0,0.0,54,0.00,,---,0.00,VWS V13.01,2013-01-06 20:23:00,
2013-01-06 13:28:00,32.8,16.7,30.08,WNW,300,0.0,0.0,51,0.00,,---,0.00,VWS V13.01,2013-01-06 20:28:00,
2013-01-06 13:33:00,33.2,19.2,30.06,WNW,300,0.0,0.0,56,0.00,,---,0.00,VWS V13.01,2013-01-06 20:33:00,
2013-01-06 13:39:00,33.7,18.0,30.06,WNW,300,0.0,0.0,52,0.00,,---,0.00,VWS V13.01,2013-01-06 20:39:00,
2013-01-06 13:44:00,33.8,17.1,30.06,WNW,299,0.0,0.0,50,0.00,,---,0.00,VWS V13.01,2013-01-06 20:44:00,
2013-01-06 13:49:00,34.1,17.9,30.05,WNW,300,0.0,0.0,51,0.00,,---,0.00,VWS V13.01,2013-01-06 20:49:00,
2013-01-06 13:54:00,34.3,16.7,30.05,West,277,0.0,2.0,48,0.00,,---,0.00,VWS V13.01,2013-01-06 20:54:00,
2013-01-06 14:00:00,34.4,15.3,30.05,West,277,0.0,0.0,45,0.00,,---,0.00,VWS V13.01,2013-01-06 21:00:00,
2013-01-06 14:02:00,34.6,20.5,30.05,West,277,0.0,0.0,56,0.00,,---,0.00,VWS V13.01,2013-01-06 21:02:00,
2013-01-06 14:07:00,34.7,18.4,30.05,West,278,0.0,0.0,51,0.00,,---,0.00,VWS V13.01,2013-01-06 21:07:00,
2013-01-06 14:12:00,34.7,19.8,30.05,North,351,0.0,2.0,54,0.00,,---,0.00,VWS V13.01,2013-01-06 21:12:00,
2013-01-06 14:17:00,34.6,18.3,30.05,West,265,0.0,1.0,51,0.00,,---,0.00,VWS V13.01,2013-01-06 21:17:00,
2013-01-06 14:22:00,34.4,20.3,30.05,West,265,0.0,0.0,56,0.00,,---,0.00,VWS V13.01,2013-01-06 21:22:00,
2013-01-06 14:28:00,34.3,19.0,30.05,West,265,0.0,0.0,53,0.00,,---,0.00,VWS V13.01,2013-01-06 21:28:00,
2013-01-06 14:33:00,34.4,16.8,30.05,West,265,0.0,0.0,48,0.00,,---,0.00,VWS V13.01,2013-01-06 21:33:00,
2013-01-06 14:38:00,34.4,18.2,30.05,West,265,1.0,1.0,51,0.00,,---,0.00,VWS V13.01,2013-01-06 21:38:00,
2013-01-06 14:43:00,34.4,16.3,30.05,West,279,0.0,1.0,47,0.00,,---,0.00,VWS V13.01,2013-01-06 21:43:00,
2013-01-06 14:48:00,34.3,18.1,30.06,SE,130,0.0,1.0,51,0.00,,---,0.00,VWS V13.01,2013-01-06 21:48:00,
2013-01-06 14:53:00,34.3,21.1,30.06,SSE,148,0.0,0.0,58,0.00,,---,0.00,VWS V13.01,2013-01-06 21:53:00,
2013-01-06 14:58:00,34.3,19.4,30.06,SSE,148,0.0,0.0,54,0.00,,---,0.00,VWS V13.01,2013-01-06 21:58:00,
2013-01-06 15:03:00,34.1,20.1,30.07,SSE,148,0.0,1.0,56,0.00,,---,0.00,VWS V13.01,2013-01-06 22:03:00,
2013-01-06 15:09:00,33.8,20.2,30.07,SSE,148,0.0,0.0,57,0.00,,---,0.00,VWS V13.01,2013-01-06 22:09:00,
2013-01-06 15:14:00,33.7,20.5,30.07,SSE,148,0.0,0.0,58,0.00,,---,0.00,VWS V13.01,2013-01-06 22:14:00,
2013-01-06 15:19:00,33.4,20.2,30.06,SSE,148,0.0,0.0,58,0.00,,---,0.00,VWS V13.01,2013-01-06 22:19:00,
2013-01-06 15:24:00,33.1,20.4,30.06,SSE,148,0.0,0.0,59,0.00,,---,0.00,VWS V13.01,2013-01-06 22:24:00,
2013-01-06 15:29:00,32.7,20.0,30.06,SSE,148,0.0,0.0,59,0.00,,---,0.00,VWS V13.01,2013-01-06 22:29:00,
2013-01-06 15:35:00,32.4,20.9,30.06,SSE,148,0.0,0.0,62,0.00,,---,0.00,VWS V13.01,2013-01-06 22:35:00,
2013-01-06 15:40:00,32.1,20.6,30.06,SSE,148,0.0,0.0,62,0.00,,---,0.00,VWS V13.01,2013-01-06 22:40:00,
2013-01-06 15:45:00,31.8,19.1,30.07,SSE,148,0.0,0.0,59,0.00,,---,0.00,VWS V13.01,2013-01-06 22:45:00,
2013-01-06 15:50:00,31.5,19.6,30.07,SSE,148,0.0,0.0,61,0.00,,---,0.00,VWS V13.01,2013-01-06 22:50:00,
2013-01-06 15:55:00,31.3,19.4,30.07,SSE,148,0.0,0.0,61,0.00,,---,0.00,VWS V13.01,2013-01-06 22:55:00,
2013-01-06 16:00:00,31.0,19.9,30.08,SSE,148,0.0,0.0,63,0.00,,---,0.00,VWS V13.01,2013-01-06 23:00:00,
2013-01-06 16:05:00,30.6,20.2,30.08,SSE,148,0.0,0.0,65,0.00,,---,0.00,VWS V13.01,2013-01-06 23:05:00,
2013-01-06 16:11:00,30.1,19.8,30.08,SSE,148,0.0,0.0,65,0.00,,---,0.00,VWS V13.01,2013-01-06 23:11:00,
2013-01-06 16:16:00,29.7,19.4,30.09,SSE,148,0.0,0.0,65,0.00,,---,0.00,VWS V13.01,2013-01-06 23:16:00,
2013-01-06 16:21:00,29.4,19.5,30.09,SSE,148,0.0,0.0,66,0.00,,---,0.00,VWS V13.01,2013-01-06 23:21:00,
2013-01-06 16:26:00,29.0,18.7,30.09,SSE,148,0.0,1.0,65,0.00,,---,0.00,VWS V13.01,2013-01-06 23:26:00,
2013-01-06 16:31:00,28.5,19.0,30.09,SSE,148,0.0,0.0,67,0.00,,---,0.00,VWS V13.01,2013-01-06 23:31:00,
2013-01-06 16:36:00,28.1,18.9,30.09,SSE,148,0.0,0.0,68,0.00,,---,0.00,VWS V13.01,2013-01-06 23:36:00,
2013-01-06 16:41:00,27.8,19.0,30.09,SSE,148,0.0,0.0,69,0.00,,---,0.00,VWS V13.01,2013-01-06 23:41:00,
2013-01-06 16:46:00,27.6,18.8,30.10,SSE,148,0.0,0.0,69,0.00,,---,0.00,VWS V13.01,2013-01-06 23:46:00,
2013-01-06 16:52:00,27.5,18.7,30.10,SSE,148,0.0,0.0,69,0.00,,---,0.00,VWS V13.01,2013-01-06 23:52:00,
2013-01-06 16:57:00,27.5,18.7,30.10,SSE,148,0.0,0.0,69,0.00,,---,0.00,VWS V13.01,2013-01-06 23:57:00,
2013-01-06 17:02:00,27.5,19.4,30.11,SSE,148,0.0,0.0,71,0.00,,---,0.00,VWS V13.01,2013-01-07 00:02:00,
2013-01-06 17:07:00,27.5,19.7,30.11,SSE,148,0.0,0.0,72,0.00,,---,0.00,VWS V13.01,2013-01-07 00:07:00,
2013-01-06 17:12:00,27.6,19.8,30.11,SSE,148,0.0,0.0,72,0.00,,---,0.00,VWS V13.01,2013-01-07 00:12:00,
2013-01-06 17:17:00,27.8,20.3,30.12,SSE,148,0.0,0.0,73,0.00,,---,0.00,VWS V13.01,2013-01-07 00:17:00,
2013-01-06 17:22:00,28.1,20.6,30.12,SSE,148,0.0,0.0,73,0.00,,---,0.00,VWS V13.01,2013-01-07 00:22:00,
2013-01-06 17:27:00,28.2,20.7,30.12,SSE,148,0.0,0.0,73,0.00,,---,0.00,VWS V13.01,2013-01-07 00:27:00,
2013-01-06 17:32:00,28.7,21.5,30.11,SSE,148,0.0,0.0,74,0.00,,---,0.00,VWS V13.01,2013-01-07 00:32:00,
2013-01-06 17:38:00,29.0,21.1,30.11,SSE,148,0.0,0.0,72,0.00,,---,0.00,VWS V13.01,2013-01-07 00:38:00,
2013-01-06 17:43:00,29.3,21.4,30.11,SSE,148,0.0,0.0,72,0.00,,---,0.00,VWS V13.01,2013-01-07 00:43:00,
2013-01-06 17:48:00,29.4,21.2,30.11,ESE,105,0.0,0.0,71,0.00,,---,0.00,VWS V13.01,2013-01-07 00:48:00,
2013-01-06 17:53:00,29.5,21.3,30.11,ESE,105,0.0,0.0,71,0.00,,---,0.00,VWS V13.01,2013-01-07 00:53:00,
2013-01-06 17:58:00,30.0,20.7,30.11,ESE,105,0.0,0.0,68,0.00,,---,0.00,VWS V13.01,2013-01-07 00:58:00,
2013-01-06 18:03:00,30.3,21.0,30.10,ESE,105,0.0,1.0,68,0.00,,---,0.00,VWS V13.01,2013-01-07 01:03:00,
2013-01-06 18:08:00,30.4,22.1,30.10,ESE,105,0.0,0.0,71,0.00,,---,0.00,VWS V13.01,2013-01-07 01:08:00,
2013-01-06 18:13:00,30.6,22.0,30.10,ESE,105,0.0,0.0,70,0.00,,---,0.00,VWS V13.01,2013-01-07 01:13:00,
2013-01-06 18:18:00,30.6,22.0,30.08,ESE,105,0.0,0.0,70,0.00,,---,0.00,VWS V13.01,2013-01-07 01:18:00,
2013-01-06 18:23:00,30.7,21.8,30.08,ESE,105,0.0,0.0,69,0.00,,---,0.00,VWS V13.01,2013-01-07 01:23:00,
2013-01-06 18:29:00,30.7,22.1,30.08,ESE,105,0.0,0.0,70,0.00,,---,0.00,VWS V13.01,2013-01-07 01:29:00,
2013-01-06 18:34:00,30.7,22.4,30.10,ESE,105,0.0,0.0,71,0.00,,---,0.00,VWS V13.01,2013-01-07 01:34:00,
2013-01-06 18:39:00,30.7,22.4,30.10,ESE,105,0.0,0.0,71,0.00,,---,0.00,VWS V13.01,2013-01-07 01:39:00,
2013-01-06 18:44:00,30.7,22.4,30.10,ESE,105,0.0,0.0,71,0.00,,---,0.00,VWS V13.01,2013-01-07 01:44:00,
2013-01-06 18:49:00,30.7,22.8,30.09,ESE,105,0.0,1.0,72,0.00,,---,0.00,VWS V13.01,2013-01-07 01:49:00,
2013-01-06 18:54:00,30.6,22.7,30.09,ESE,105,0.0,0.0,72,0.00,,---,0.00,VWS V13.01,2013-01-07 01:54:00,
2013-01-06 18:59:00,30.6,22.7,30.09,ESE,105,0.0,0.0,72,0.00,,---,0.00,VWS V13.01,2013-01-07 01:59:00,
2013-01-06 19:04:00,30.4,22.8,30.10,ESE,105,0.0,0.0,73,0.00,,---,0.00,VWS V13.01,2013-01-07 02:04:00,
2013-01-06 19:09:00,30.3,22.4,30.10,ESE,105,0.0,0.0,72,0.00,,---,0.00,VWS V13.01,2013-01-07 02:09:00,
2013-01-06 19:14:00,30.1,22.2,30.10,ESE,105,0.0,0.0,72,0.00,,---,0.00,VWS V13.01,2013-01-07 02:14:00,
2013-01-06 19:20:00,30.1,22.5,30.10,ESE,105,0.0,0.0,73,0.00,,---,0.00,VWS V13.01,2013-01-07 02:20:00,
2013-01-06 19:25:00,30.1,22.5,30.10,ESE,105,0.0,0.0,73,0.00,,---,0.00,VWS V13.01,2013-01-07 02:25:00,
2013-01-06 19:30:00,30.0,22.4,30.10,ESE,105,0.0,0.0,73,0.00,,---,0.00,VWS V13.01,2013-01-07 02:30:00,
2013-01-06 19:35:00,30.0,22.7,30.10,ESE,105,0.0,0.0,74,0.00,,---,0.00,VWS V13.01,2013-01-07 02:35:00,
2013-01-06 19:40:00,30.0,22.7,30.10,ESE,105,0.0,0.0,74,0.00,,---,0.00,VWS V13.01,2013-01-07 02:40:00,
2013-01-06 19:45:00,30.0,22.7,30.11,ESE,105,0.0,0.0,74,0.00,,---,0.00,VWS V13.01,2013-01-07 02:45:00,
2013-01-06 19:50:00,29.8,21.9,30.11,ESE,105,0.0,0.0,72,0.00,,---,0.00,VWS V13.01,2013-01-07 02:50:00,
2013-01-06 19:55:00,30.0,22.1,30.11,ESE,105,0.0,0.0,72,0.00,,---,0.00,VWS V13.01,2013-01-07 02:55:00,
2013-01-06 20:00:00,30.0,22.4,30.11,ESE,105,0.0,0.0,73,0.00,,---,0.00,VWS V13.01,2013-01-07 03:00:00,
2013-01-06 20:05:00,30.0,21.8,30.11,ESE,105,0.0,0.0,71,0.00,,---,0.00,VWS V13.01,2013-01-07 03:05:00,
2013-01-06 20:10:00,30.1,21.2,30.11,ESE,105,0.0,0.0,69,0.00,,---,0.00,VWS V13.01,2013-01-07 03:10:00,
2013-01-06 20:15:00,30.3,22.0,30.11,ESE,105,0.0,0.0,71,0.00,,---,0.00,VWS V13.01,2013-01-07 03:15:00,
2013-01-06 20:20:00,30.3,21.7,30.11,ESE,105,0.0,0.0,70,0.00,,---,0.00,VWS V13.01,2013-01-07 03:20:00,
2013-01-06 20:25:00,30.1,21.5,30.11,ESE,105,0.0,0.0,70,0.00,,---,0.00,VWS V13.01,2013-01-07 03:25:00,
2013-01-06 20:30:00,30.0,21.4,30.11,ESE,105,0.0,0.0,70,0.00,,---,0.00,VWS V13.01,2013-01-07 03:30:00,
2013-01-06 20:35:00,29.8,21.2,30.11,ESE,105,0.0,0.0,70,0.00,,---,0.00,VWS V13.01,2013-01-07 03:35:00,
2013-01-06 20:40:00,29.7,21.1,30.11,ESE,105,0.0,0.0,70,0.00,,---,0.00,VWS V13.01,2013-01-07 03:40:00,
2013-01-06 20:45:00,29.5,20.9,30.11,ESE,105,0.0,0.0,70,0.00,,---,0.00,VWS V13.01,2013-01-07 03:45:00,
2013-01-06 20:50:00,29.5,20.6,30.11,ENE,61,0.0,4.0,69,0.00,,---,0.00,VWS V13.01,2013-01-07 03:50:00,
2013-01-06 20:55:00,29.4,20.5,30.11,ENE,61,0.0,0.0,69,0.00,,---,0.00,VWS V13.01,2013-01-07 03:55:00,
2013-01-06 21:00:00,29.3,20.7,30.11,ENE,61,0.0,0.0,70,0.00,,---,0.00,VWS V13.01,2013-01-07 04:00:00,
2013-01-06 21:05:00,29.0,20.5,30.11,ENE,61,0.0,0.0,70,0.00,,---,0.00,VWS V13.01,2013-01-07 04:05:00,
2013-01-06 21:10:00,28.7,20.2,30.11,ENE,61,0.0,0.0,70,0.00,,---,0.00,VWS V13.01,2013-01-07 04:10:00,
2013-01-06 21:15:00,28.4,20.2,30.09,ENE,61,0.0,0.0,71,0.00,,---,0.00,VWS V13.01,2013-01-07 04:15:00,
2013-01-06 21:21:00,28.2,20.0,30.09,ENE,61,0.0,0.0,71,0.00,,---,0.00,VWS V13.01,2013-01-07 04:21:00,
2013-01-06 21:26:00,27.9,20.1,30.09,ENE,61,0.0,0.0,72,0.00,,---,0.00,VWS V13.01,2013-01-07 04:26:00,
2013-01-06 21:31:00,27.8,20.0,30.09,ENE,61,0.0,0.0,72,0.00,,---,0.00,VWS V13.01,2013-01-07 04:31:00,
2013-01-06 21:36:00,27.6,19.4,30.09,ENE,61,0.0,0.0,71,0.00,,---,0.00,VWS V13.01,2013-01-07 04:36:00,
2013-01-06 21:41:00,27.5,20.0,30.09,ENE,61,0.0,0.0,73,0.00,,---,0.00,VWS V13.01,2013-01-07 04:41:00,
2013-01-06 21:46:00,27.5,20.3,30.09,ENE,61,0.0,0.0,74,0.00,,---,0.00,VWS V13.01,2013-01-07 04:46:00,
2013-01-06 21:51:00,27.6,20.7,30.09,ENE,61,0.0,0.0,75,0.00,,---,0.00,VWS V13.01,2013-01-07 04:51:00,
2013-01-06 21:56:00,27.8,20.9,30.09,ENE,61,0.0,0.0,75,0.00,,---,0.00,VWS V13.01,2013-01-07 04:56:00,
2013-01-06 22:00:00,27.8,20.6,30.09,ENE,61,0.0,0.0,74,0.00,,---,0.00,VWS V13.01,2013-01-07 05:00:00,
2013-01-06 22:02:00,27.8,20.3,30.09,ENE,61,0.0,0.0,73,0.00,,---,0.00,VWS V13.01,2013-01-07 05:02:00,
2013-01-06 22:07:00,27.8,20.6,30.09,ENE,61,0.0,0.0,74,0.00,,---,0.00,VWS V13.01,2013-01-07 05:07:00,
2013-01-06 22:08:00,27.8,20.6,30.09,ENE,61,0.0,0.0,74,0.00,,---,0.00,VWS V13.01,2013-01-07 05:08:00,
2013-01-06 22:13:00,27.6,20.4,30.09,ENE,61,0.0,0.0,74,0.00,,---,0.00,VWS V13.01,2013-01-07 05:13:00,
2013-01-06 22:19:00,27.6,20.7,30.08,ENE,61,0.0,0.0,75,0.00,,---,0.00,VWS V13.01,2013-01-07 05:19:00,
2013-01-06 22:24:00,27.6,20.7,30.08,ENE,61,0.0,0.0,75,0.00,,---,0.00,VWS V13.01,2013-01-07 05:24:00,
2013-01-06 22:29:00,27.6,20.7,30.08,ENE,61,0.0,0.0,75,0.00,,---,0.00,VWS V13.01,2013-01-07 05:29:00,
2013-01-06 22:34:00,27.8,20.9,30.08,ENE,61,0.0,0.0,75,0.00,,---,0.00,VWS V13.01,2013-01-07 05:34:00,
2013-01-06 22:39:00,27.9,20.4,30.08,ENE,61,0.0,0.0,73,0.00,,---,0.00,VWS V13.01,2013-01-07 05:39:00,
2013-01-06 22:44:00,27.9,21.0,30.08,ENE,61,0.0,0.0,75,0.00,,---,0.00,VWS V13.01,2013-01-07 05:44:00,
2013-01-06 22:49:00,27.9,20.7,30.08,ENE,61,0.0,0.0,74,0.00,,---,0.00,VWS V13.01,2013-01-07 05:49:00,
2013-01-06 22:54:00,27.9,21.0,30.08,ENE,61,0.0,0.0,75,0.00,,---,0.00,VWS V13.01,2013-01-07 05:54:00,
2013-01-06 22:59:00,27.9,21.0,30.09,ENE,61,0.0,0.0,75,0.00,,---,0.00,VWS V13.01,2013-01-07 05:59:00,
2013-01-06 23:04:00,27.9,20.7,30.09,ENE,61,0.0,0.0,74,0.00,,---,0.00,VWS V13.01,2013-01-07 06:04:00,
2013-01-06 23:09:00,28.1,21.2,30.09,ENE,61,0.0,0.0,75,0.00,,---,0.00,VWS V13.01,2013-01-07 06:09:00,
2013-01-06 23:14:00,28.1,20.9,30.10,ENE,61,0.0,0.0,74,0.00,,---,0.00,VWS V13.01,2013-01-07 06:14:00,
2013-01-06 23:20:00,27.9,21.0,30.10,ENE,61,0.0,0.0,75,0.00,,---,0.00,VWS V13.01,2013-01-07 06:20:00,
2013-01-06 23:25:00,27.9,20.7,30.10,ENE,61,0.0,0.0,74,0.00,,---,0.00,VWS V13.01,2013-01-07 06:25:00,
2013-01-06 23:30:00,27.9,21.0,30.10,ENE,61,0.0,0.0,75,0.00,,---,0.00,VWS V13.01,2013-01-07 06:30:00,
2013-01-06 23:35:00,27.8,20.9,30.10,ENE,61,0.0,0.0,75,0.00,,---,0.00,VWS V13.01,2013-01-07 06:35:00,
2013-01-06 23:40:00,27.8,20.9,30.10,ENE,61,0.0,0.0,75,0.00,,---,0.00,VWS V13.01,2013-01-07 06:40:00,
2013-01-06 23:45:00,27.8,20.9,30.10,ENE,61,0.0,0.0,75,0.00,,---,0.00,VWS V13.01,2013-01-07 06:45:00,
2013-01-06 23:50:00,27.9,21.0,30.10,ENE,61,0.0,0.0,75,0.00,,---,0.00,VWS V13.01,2013-01-07 06:50:00,
2013-01-06 23:55:00,27.9,21.0,30.10,ENE,61,0.0,0.0,75,0.00,,---,0.00,VWS V13.01,2013-01-07 06:55:00,